sensor_id;sensor_type;location;lat;lon;timestamp;P1;durP1;ratioP1;P2;durP2;ratioP2
5967;SDS011;3010;51.028;4.170;2023-11-21T00:01:42;50.07;;;20.50;;
5967;SDS011;3010;51.028;4.170;2023-11-21T00:04:08;107.80;;;22.57;;
5967;SDS011;3010;51.028;4.170;2023-11-21T00:06:35;64.50;;;30.48;;
5967;SDS011;3010;51.028;4.170;2023-11-21T00:09:02;343.83;;;42.60;;
5967;SDS011;3010;51.028;4.170;2023-11-21T00:11:28;470.23;;;39.60;;
5967;SDS011;3010;51.028;4.170;2023-11-21T00:13:55;484.70;;;35.50;;
5967;SDS011;3010;51.028;4.170;2023-11-21T00:16:21;441.47;;;34.33;;
5967;SDS011;3010;51.028;4.170;2023-11-21T00:18:48;406.00;;;34.83;;
5967;SDS011;3010;51.028;4.170;2023-11-21T00:21:15;264.03;;;32.87;;
5967;SDS011;3010;51.028;4.170;2023-11-21T00:23:41;177.13;;;32.17;;
5967;SDS011;3010;51.028;4.170;2023-11-21T00:26:08;166.10;;;32.53;;
5967;SDS011;3010;51.028;4.170;2023-11-21T00:28:34;162.50;;;33.73;;
5967;SDS011;3010;51.028;4.170;2023-11-21T00:31:01;104.90;;;31.20;;
5967;SDS011;3010;51.028;4.170;2023-11-21T00:33:28;123.77;;;32.60;;
5967;SDS011;3010;51.028;4.170;2023-11-21T00:35:54;109.03;;;32.33;;
5967;SDS011;3010;51.028;4.170;2023-11-21T00:38:21;105.17;;;33.23;;
5967;SDS011;3010;51.028;4.170;2023-11-21T00:40:47;97.50;;;33.43;;
5967;SDS011;3010;51.028;4.170;2023-11-21T00:43:14;103.27;;;33.77;;
5967;SDS011;3010;51.028;4.170;2023-11-21T00:45:41;94.23;;;34.10;;
5967;SDS011;3010;51.028;4.170;2023-11-21T00:48:07;113.80;;;37.17;;
5967;SDS011;3010;51.028;4.170;2023-11-21T00:50:34;148.17;;;34.90;;
5967;SDS011;3010;51.028;4.170;2023-11-21T00:53:00;120.33;;;36.00;;
5967;SDS011;3010;51.028;4.170;2023-11-21T00:55:27;101.63;;;35.93;;
5967;SDS011;3010;51.028;4.170;2023-11-21T00:57:53;95.97;;;34.23;;
5967;SDS011;3010;51.028;4.170;2023-11-21T01:00:20;109.73;;;35.57;;
5967;SDS011;3010;51.028;4.170;2023-11-21T01:02:47;99.73;;;36.87;;
5967;SDS011;3010;51.028;4.170;2023-11-21T01:05:13;92.20;;;35.07;;
5967;SDS011;3010;51.028;4.170;2023-11-21T01:07:40;121.60;;;37.30;;
5967;SDS011;3010;51.028;4.170;2023-11-21T01:10:06;119.27;;;36.73;;
5967;SDS011;3010;51.028;4.170;2023-11-21T01:12:36;124.53;;;36.90;;
5967;SDS011;3010;51.028;4.170;2023-11-21T01:15:03;109.07;;;37.93;;
5967;SDS011;3010;51.028;4.170;2023-11-21T01:17:29;126.87;;;38.30;;
5967;SDS011;3010;51.028;4.170;2023-11-21T01:19:56;168.77;;;52.62;;
5967;SDS011;3010;51.028;4.170;2023-11-21T01:22:22;122.23;;;42.10;;
5967;SDS011;3010;51.028;4.170;2023-11-21T01:24:49;142.97;;;42.67;;
5967;SDS011;3010;51.028;4.170;2023-11-21T01:27:15;119.90;;;40.47;;
5967;SDS011;3010;51.028;4.170;2023-11-21T01:29:42;194.27;;;53.85;;
5967;SDS011;3010;51.028;4.170;2023-11-21T01:32:09;161.37;;;44.33;;
5967;SDS011;3010;51.028;4.170;2023-11-21T01:34:35;127.83;;;41.90;;
5967;SDS011;3010;51.028;4.170;2023-11-21T01:37:02;136.70;;;41.17;;
5967;SDS011;3010;51.028;4.170;2023-11-21T01:39:28;175.93;;;56.35;;
5967;SDS011;3010;51.028;4.170;2023-11-21T01:41:55;191.93;;;47.60;;
5967;SDS011;3010;51.028;4.170;2023-11-21T01:44:22;141.60;;;43.60;;
5967;SDS011;3010;51.028;4.170;2023-11-21T01:46:48;159.67;;;44.20;;
5967;SDS011;3010;51.028;4.170;2023-11-21T01:49:15;148.63;;;43.57;;
5967;SDS011;3010;51.028;4.170;2023-11-21T01:51:43;132.70;;;43.53;;
5967;SDS011;3010;51.028;4.170;2023-11-21T01:54:08;199.57;;;58.65;;
5967;SDS011;3010;51.028;4.170;2023-11-21T01:56:35;143.67;;;47.70;;
5967;SDS011;3010;51.028;4.170;2023-11-21T01:59:01;173.13;;;46.03;;
5967;SDS011;3010;51.028;4.170;2023-11-21T02:01:28;133.13;;;43.17;;
5967;SDS011;3010;51.028;4.170;2023-11-21T02:03:54;147.20;;;44.83;;
5967;SDS011;3010;51.028;4.170;2023-11-21T02:06:21;132.37;;;45.30;;
5967;SDS011;3010;51.028;4.170;2023-11-21T02:08:47;168.43;;;57.80;;
5967;SDS011;3010;51.028;4.170;2023-11-21T02:11:14;172.63;;;50.23;;
5967;SDS011;3010;51.028;4.170;2023-11-21T02:13:41;166.17;;;47.80;;
5967;SDS011;3010;51.028;4.170;2023-11-21T02:16:07;159.73;;;47.13;;
5967;SDS011;3010;51.028;4.170;2023-11-21T02:18:34;181.70;;;59.20;;
5967;SDS011;3010;51.028;4.170;2023-11-21T02:21:00;158.23;;;50.13;;
5967;SDS011;3010;51.028;4.170;2023-11-21T02:23:27;139.37;;;46.83;;
5967;SDS011;3010;51.028;4.170;2023-11-21T02:25:54;124.57;;;45.73;;
5967;SDS011;3010;51.028;4.170;2023-11-21T02:28:20;139.37;;;45.00;;
5967;SDS011;3010;51.028;4.170;2023-11-21T02:30:47;132.00;;;45.13;;
5967;SDS011;3010;51.028;4.170;2023-11-21T02:33:13;144.67;;;46.77;;
5967;SDS011;3010;51.028;4.170;2023-11-21T02:35:40;146.87;;;46.23;;
5967;SDS011;3010;51.028;4.170;2023-11-21T02:38:07;142.57;;;45.87;;
5967;SDS011;3010;51.028;4.170;2023-11-21T02:40:33;126.37;;;45.67;;
5967;SDS011;3010;51.028;4.170;2023-11-21T02:43:00;146.00;;;44.80;;
5967;SDS011;3010;51.028;4.170;2023-11-21T02:45:26;187.43;;;61.63;;
5967;SDS011;3010;51.028;4.170;2023-11-21T02:47:53;154.17;;;50.70;;
5967;SDS011;3010;51.028;4.170;2023-11-21T02:50:19;138.47;;;47.23;;
5967;SDS011;3010;51.028;4.170;2023-11-21T02:52:46;149.77;;;47.60;;
5967;SDS011;3010;51.028;4.170;2023-11-21T02:55:13;137.40;;;46.80;;
5967;SDS011;3010;51.028;4.170;2023-11-21T02:57:39;134.87;;;46.53;;
5967;SDS011;3010;51.028;4.170;2023-11-21T03:00:06;163.80;;;61.97;;
5967;SDS011;3010;51.028;4.170;2023-11-21T03:02:33;141.57;;;50.63;;
5967;SDS011;3010;51.028;4.170;2023-11-21T03:04:59;151.40;;;48.07;;
5967;SDS011;3010;51.028;4.170;2023-11-21T03:07:26;152.53;;;49.13;;
5967;SDS011;3010;51.028;4.170;2023-11-21T03:09:52;139.20;;;48.53;;
5967;SDS011;3010;51.028;4.170;2023-11-21T03:12:19;144.50;;;47.67;;
5967;SDS011;3010;51.028;4.170;2023-11-21T03:14:45;161.53;;;48.47;;
5967;SDS011;3010;51.028;4.170;2023-11-21T03:17:12;137.17;;;48.47;;
5967;SDS011;3010;51.028;4.170;2023-11-21T03:19:39;151.97;;;48.23;;
5967;SDS011;3010;51.028;4.170;2023-11-21T03:22:05;154.20;;;48.10;;
5967;SDS011;3010;51.028;4.170;2023-11-21T03:24:32;150.23;;;50.10;;
5967;SDS011;3010;51.028;4.170;2023-11-21T03:26:58;130.07;;;49.63;;
5967;SDS011;3010;51.028;4.170;2023-11-21T03:29:25;137.00;;;50.23;;
5967;SDS011;3010;51.028;4.170;2023-11-21T03:31:52;142.17;;;48.40;;
5967;SDS011;3010;51.028;4.170;2023-11-21T03:34:25;140.93;;;49.90;;
5967;SDS011;3010;51.028;4.170;2023-11-21T03:36:51;164.53;;;65.60;;
5967;SDS011;3010;51.028;4.170;2023-11-21T03:39:17;172.45;;;67.95;;
5967;SDS011;3010;51.028;4.170;2023-11-21T03:41:44;135.20;;;52.57;;
5967;SDS011;3010;51.028;4.170;2023-11-21T03:44:10;149.50;;;52.83;;
5967;SDS011;3010;51.028;4.170;2023-11-21T03:46:37;147.00;;;49.70;;
5967;SDS011;3010;51.028;4.170;2023-11-21T03:49:04;153.52;;;65.53;;
5967;SDS011;3010;51.028;4.170;2023-11-21T03:51:30;171.00;;;69.15;;
5967;SDS011;3010;51.028;4.170;2023-11-21T03:53:57;162.83;;;54.60;;
5967;SDS011;3010;51.028;4.170;2023-11-21T03:56:23;175.10;;;52.50;;
5967;SDS011;3010;51.028;4.170;2023-11-21T03:58:50;136.60;;;50.83;;
5967;SDS011;3010;51.028;4.170;2023-11-21T04:01:20;128.73;;;49.90;;
5967;SDS011;3010;51.028;4.170;2023-11-21T04:03:49;153.43;;;49.40;;
5967;SDS011;3010;51.028;4.170;2023-11-21T04:06:15;157.03;;;50.30;;
5967;SDS011;3010;51.028;4.170;2023-11-21T04:08:42;152.93;;;50.20;;
5967;SDS011;3010;51.028;4.170;2023-11-21T04:11:08;141.70;;;50.40;;
5967;SDS011;3010;51.028;4.170;2023-11-21T04:13:35;187.00;;;67.75;;
5967;SDS011;3010;51.028;4.170;2023-11-21T04:16:02;122.63;;;52.90;;
5967;SDS011;3010;51.028;4.170;2023-11-21T04:18:28;138.43;;;52.10;;
5967;SDS011;3010;51.028;4.170;2023-11-21T04:20:55;131.73;;;50.53;;
5967;SDS011;3010;51.028;4.170;2023-11-21T04:23:21;150.93;;;60.10;;
5967;SDS011;3010;51.028;4.170;2023-11-21T04:25:48;119.33;;;48.93;;
5967;SDS011;3010;51.028;4.170;2023-11-21T04:28:14;116.88;;;54.53;;
5967;SDS011;3010;51.028;4.170;2023-11-21T04:30:41;108.33;;;45.37;;
5967;SDS011;3010;51.028;4.170;2023-11-21T04:33:08;106.03;;;45.53;;
5967;SDS011;3010;51.028;4.170;2023-11-21T04:35:34;103.00;;;43.83;;
5967;SDS011;3010;51.028;4.170;2023-11-21T04:38:01;88.57;;;45.10;;
5967;SDS011;3010;51.028;4.170;2023-11-21T04:40:27;79.27;;;38.10;;
5967;SDS011;3010;51.028;4.170;2023-11-21T04:42:54;74.03;;;35.67;;
5967;SDS011;3010;51.028;4.170;2023-11-21T04:45:21;66.87;;;34.27;;
5967;SDS011;3010;51.028;4.170;2023-11-21T04:47:47;70.47;;;33.93;;
5967;SDS011;3010;51.028;4.170;2023-11-21T04:50:14;82.10;;;35.07;;
5967;SDS011;3010;51.028;4.170;2023-11-21T04:52:40;97.57;;;42.13;;
5967;SDS011;3010;51.028;4.170;2023-11-21T04:55:07;87.83;;;35.07;;
5967;SDS011;3010;51.028;4.170;2023-11-21T04:57:34;91.97;;;34.90;;
5967;SDS011;3010;51.028;4.170;2023-11-21T05:00:00;78.57;;;34.90;;
5967;SDS011;3010;51.028;4.170;2023-11-21T05:02:27;85.23;;;34.17;;
5967;SDS011;3010;51.028;4.170;2023-11-21T05:04:53;79.30;;;32.67;;
5967;SDS011;3010;51.028;4.170;2023-11-21T05:07:20;80.20;;;32.70;;
5967;SDS011;3010;51.028;4.170;2023-11-21T05:09:47;87.00;;;35.20;;
5967;SDS011;3010;51.028;4.170;2023-11-21T05:12:13;85.60;;;34.70;;
5967;SDS011;3010;51.028;4.170;2023-11-21T05:14:40;84.07;;;35.33;;
5967;SDS011;3010;51.028;4.170;2023-11-21T05:17:06;113.33;;;37.90;;
5967;SDS011;3010;51.028;4.170;2023-11-21T05:19:33;179.82;;;57.15;;
5967;SDS011;3010;51.028;4.170;2023-11-21T05:22:00;136.20;;;46.20;;
5967;SDS011;3010;51.028;4.170;2023-11-21T05:24:26;114.60;;;41.77;;
5967;SDS011;3010;51.028;4.170;2023-11-21T05:26:53;116.17;;;43.03;;
5967;SDS011;3010;51.028;4.170;2023-11-21T05:29:19;148.50;;;58.67;;
5967;SDS011;3010;51.028;4.170;2023-11-21T05:31:46;157.23;;;49.90;;
5967;SDS011;3010;51.028;4.170;2023-11-21T05:34:12;144.50;;;47.70;;
5967;SDS011;3010;51.028;4.170;2023-11-21T05:36:39;110.93;;;44.63;;
5967;SDS011;3010;51.028;4.170;2023-11-21T05:39:06;131.05;;;59.70;;
5967;SDS011;3010;51.028;4.170;2023-11-21T05:41:32;132.87;;;50.27;;
5967;SDS011;3010;51.028;4.170;2023-11-21T05:43:59;131.60;;;48.27;;
5967;SDS011;3010;51.028;4.170;2023-11-21T05:46:25;127.40;;;48.03;;
5967;SDS011;3010;51.028;4.170;2023-11-21T05:48:52;146.53;;;48.57;;
5967;SDS011;3010;51.028;4.170;2023-11-21T05:51:19;133.57;;;49.27;;
5967;SDS011;3010;51.028;4.170;2023-11-21T05:53:45;194.18;;;68.75;;
5967;SDS011;3010;51.028;4.170;2023-11-21T05:56:12;139.17;;;54.40;;
5967;SDS011;3010;51.028;4.170;2023-11-21T05:58:38;173.47;;;51.80;;
5967;SDS011;3010;51.028;4.170;2023-11-21T06:01:05;140.63;;;51.03;;
5967;SDS011;3010;51.028;4.170;2023-11-21T06:03:31;133.93;;;51.50;;
5967;SDS011;3010;51.028;4.170;2023-11-21T06:05:58;138.77;;;48.47;;
5967;SDS011;3010;51.028;4.170;2023-11-21T06:08:25;141.63;;;51.73;;
5967;SDS011;3010;51.028;4.170;2023-11-21T06:10:51;139.83;;;51.83;;
5967;SDS011;3010;51.028;4.170;2023-11-21T06:13:18;145.23;;;50.83;;
5967;SDS011;3010;51.028;4.170;2023-11-21T06:15:44;162.93;;;52.97;;
5967;SDS011;3010;51.028;4.170;2023-11-21T06:18:11;144.00;;;53.17;;
5967;SDS011;3010;51.028;4.170;2023-11-21T06:20:38;149.53;;;54.20;;
5967;SDS011;3010;51.028;4.170;2023-11-21T06:23:04;156.60;;;52.53;;
5967;SDS011;3010;51.028;4.170;2023-11-21T06:25:31;157.53;;;52.80;;
5967;SDS011;3010;51.028;4.170;2023-11-21T06:27:57;171.77;;;52.07;;
5967;SDS011;3010;51.028;4.170;2023-11-21T06:30:24;136.97;;;53.10;;
5967;SDS011;3010;51.028;4.170;2023-11-21T06:32:51;149.63;;;53.20;;
5967;SDS011;3010;51.028;4.170;2023-11-21T06:35:17;166.93;;;72.97;;
5967;SDS011;3010;51.028;4.170;2023-11-21T06:37:44;156.87;;;57.10;;
5967;SDS011;3010;51.028;4.170;2023-11-21T06:40:10;153.83;;;57.57;;
5967;SDS011;3010;51.028;4.170;2023-11-21T06:42:37;142.93;;;54.03;;
5967;SDS011;3010;51.028;4.170;2023-11-21T06:45:03;158.53;;;56.33;;
5967;SDS011;3010;51.028;4.170;2023-11-21T06:47:30;164.27;;;56.97;;
5967;SDS011;3010;51.028;4.170;2023-11-21T06:49:57;178.73;;;60.07;;
5967;SDS011;3010;51.028;4.170;2023-11-21T06:52:23;175.20;;;60.73;;
5967;SDS011;3010;51.028;4.170;2023-11-21T06:54:50;163.07;;;58.93;;
5967;SDS011;3010;51.028;4.170;2023-11-21T06:57:16;163.17;;;58.13;;
5967;SDS011;3010;51.028;4.170;2023-11-21T06:59:43;163.27;;;58.97;;
5967;SDS011;3010;51.028;4.170;2023-11-21T07:02:10;147.40;;;55.63;;
5967;SDS011;3010;51.028;4.170;2023-11-21T07:04:36;169.20;;;57.10;;
5967;SDS011;3010;51.028;4.170;2023-11-21T07:07:03;143.93;;;56.30;;
5967;SDS011;3010;51.028;4.170;2023-11-21T07:09:29;171.37;;;57.53;;
5967;SDS011;3010;51.028;4.170;2023-11-21T07:11:56;186.20;;;56.17;;
5967;SDS011;3010;51.028;4.170;2023-11-21T07:14:22;170.67;;;55.73;;
5967;SDS011;3010;51.028;4.170;2023-11-21T07:16:49;130.47;;;54.83;;
5967;SDS011;3010;51.028;4.170;2023-11-21T07:19:16;173.07;;;74.72;;
5967;SDS011;3010;51.028;4.170;2023-11-21T07:21:42;188.67;;;60.07;;
5967;SDS011;3010;51.028;4.170;2023-11-21T07:24:09;141.10;;;55.90;;
5967;SDS011;3010;51.028;4.170;2023-11-21T07:26:36;192.17;;;56.20;;
5967;SDS011;3010;51.028;4.170;2023-11-21T07:29:02;162.63;;;55.03;;
5967;SDS011;3010;51.028;4.170;2023-11-21T07:31:29;156.17;;;53.93;;
5967;SDS011;3010;51.028;4.170;2023-11-21T07:33:55;158.67;;;53.10;;
5967;SDS011;3010;51.028;4.170;2023-11-21T07:36:25;156.80;;;53.10;;
5967;SDS011;3010;51.028;4.170;2023-11-21T07:38:51;153.97;;;55.00;;
5967;SDS011;3010;51.028;4.170;2023-11-21T07:41:18;170.87;;;55.50;;
5967;SDS011;3010;51.028;4.170;2023-11-21T07:43:44;156.03;;;53.83;;
5967;SDS011;3010;51.028;4.170;2023-11-21T07:46:11;151.17;;;54.33;;
5967;SDS011;3010;51.028;4.170;2023-11-21T07:48:41;169.23;;;54.47;;
5967;SDS011;3010;51.028;4.170;2023-11-21T07:51:10;150.40;;;54.53;;
5967;SDS011;3010;51.028;4.170;2023-11-21T07:53:36;137.00;;;52.80;;
5967;SDS011;3010;51.028;4.170;2023-11-21T07:56:03;146.10;;;53.77;;
5967;SDS011;3010;51.028;4.170;2023-11-21T07:58:29;170.33;;;54.87;;
5967;SDS011;3010;51.028;4.170;2023-11-21T08:00:56;180.27;;;72.20;;
5967;SDS011;3010;51.028;4.170;2023-11-21T08:03:23;154.50;;;56.50;;
5967;SDS011;3010;51.028;4.170;2023-11-21T08:05:49;154.00;;;54.57;;
5967;SDS011;3010;51.028;4.170;2023-11-21T08:08:16;148.20;;;53.70;;
5967;SDS011;3010;51.028;4.170;2023-11-21T08:10:42;137.30;;;53.07;;
5967;SDS011;3010;51.028;4.170;2023-11-21T08:13:09;160.00;;;53.73;;
5967;SDS011;3010;51.028;4.170;2023-11-21T08:15:36;136.73;;;50.97;;
5967;SDS011;3010;51.028;4.170;2023-11-21T08:18:02;179.15;;;67.12;;
5967;SDS011;3010;51.028;4.170;2023-11-21T08:20:29;148.33;;;53.00;;
5967;SDS011;3010;51.028;4.170;2023-11-21T08:22:55;124.83;;;50.67;;
5967;SDS011;3010;51.028;4.170;2023-11-21T08:25:22;115.37;;;47.73;;
5967;SDS011;3010;51.028;4.170;2023-11-21T08:27:48;141.20;;;48.73;;
5967;SDS011;3010;51.028;4.170;2023-11-21T08:30:15;124.97;;;46.30;;
5967;SDS011;3010;51.028;4.170;2023-11-21T08:32:42;143.67;;;46.70;;
5967;SDS011;3010;51.028;4.170;2023-11-21T08:35:08;182.73;;;48.27;;
5967;SDS011;3010;51.028;4.170;2023-11-21T08:37:35;163.37;;;46.37;;
5967;SDS011;3010;51.028;4.170;2023-11-21T08:40:01;114.07;;;45.77;;
5967;SDS011;3010;51.028;4.170;2023-11-21T08:42:28;150.70;;;49.13;;
5967;SDS011;3010;51.028;4.170;2023-11-21T08:44:55;135.07;;;46.17;;
5967;SDS011;3010;51.028;4.170;2023-11-21T08:47:21;175.50;;;49.03;;
5967;SDS011;3010;51.028;4.170;2023-11-21T08:49:48;166.00;;;49.23;;
5967;SDS011;3010;51.028;4.170;2023-11-21T08:52:14;157.60;;;48.00;;
5967;SDS011;3010;51.028;4.170;2023-11-21T08:54:41;169.77;;;48.73;;
5967;SDS011;3010;51.028;4.170;2023-11-21T08:57:07;142.97;;;48.80;;
5967;SDS011;3010;51.028;4.170;2023-11-21T08:59:34;170.20;;;63.00;;
5967;SDS011;3010;51.028;4.170;2023-11-21T09:02:01;203.57;;;53.83;;
5967;SDS011;3010;51.028;4.170;2023-11-21T09:04:27;128.93;;;46.53;;
5967;SDS011;3010;51.028;4.170;2023-11-21T09:06:54;132.03;;;45.70;;
5967;SDS011;3010;51.028;4.170;2023-11-21T09:09:20;162.95;;;56.47;;
5967;SDS011;3010;51.028;4.170;2023-11-21T09:11:47;151.20;;;47.80;;
5967;SDS011;3010;51.028;4.170;2023-11-21T09:14:14;140.23;;;44.47;;
5967;SDS011;3010;51.028;4.170;2023-11-21T09:16:40;126.70;;;44.07;;
5967;SDS011;3010;51.028;4.170;2023-11-21T09:19:07;105.87;;;35.60;;
5967;SDS011;3010;51.028;4.170;2023-11-21T09:21:33;102.93;;;37.10;;
5967;SDS011;3010;51.028;4.170;2023-11-21T09:24:00;108.50;;;40.95;;
5967;SDS011;3010;51.028;4.170;2023-11-21T09:26:27;117.57;;;35.50;;
5967;SDS011;3010;51.028;4.170;2023-11-21T09:28:53;87.87;;;29.27;;
5967;SDS011;3010;51.028;4.170;2023-11-21T09:31:20;99.30;;;31.27;;
5967;SDS011;3010;51.028;4.170;2023-11-21T09:33:46;94.20;;;30.50;;
5967;SDS011;3010;51.028;4.170;2023-11-21T09:36:13;86.67;;;29.33;;
5967;SDS011;3010;51.028;4.170;2023-11-21T09:38:40;120.93;;;39.30;;
5967;SDS011;3010;51.028;4.170;2023-11-21T09:41:06;87.30;;;30.70;;
5967;SDS011;3010;51.028;4.170;2023-11-21T09:43:33;75.50;;;34.70;;
5967;SDS011;3010;51.028;4.170;2023-11-21T09:46:00;73.00;;;30.90;;
5967;SDS011;3010;51.028;4.170;2023-11-21T09:48:26;73.47;;;28.53;;
5967;SDS011;3010;51.028;4.170;2023-11-21T09:50:53;73.00;;;28.10;;
5967;SDS011;3010;51.028;4.170;2023-11-21T09:53:20;70.70;;;28.40;;
5967;SDS011;3010;51.028;4.170;2023-11-21T09:55:50;69.60;;;28.57;;
5967;SDS011;3010;51.028;4.170;2023-11-21T09:58:15;73.77;;;28.00;;
5967;SDS011;3010;51.028;4.170;2023-11-21T10:00:42;72.87;;;26.83;;
5967;SDS011;3010;51.028;4.170;2023-11-21T10:03:08;61.93;;;26.13;;
5967;SDS011;3010;51.028;4.170;2023-11-21T10:05:35;69.63;;;29.07;;
5967;SDS011;3010;51.028;4.170;2023-11-21T10:08:01;88.97;;;29.20;;
5967;SDS011;3010;51.028;4.170;2023-11-21T10:10:28;81.00;;;28.80;;
5967;SDS011;3010;51.028;4.170;2023-11-21T10:12:57;64.23;;;26.00;;
5967;SDS011;3010;51.028;4.170;2023-11-21T10:15:24;71.33;;;29.07;;
5967;SDS011;3010;51.028;4.170;2023-11-21T10:17:50;64.07;;;28.57;;
5967;SDS011;3010;51.028;4.170;2023-11-21T10:20:17;65.43;;;27.33;;
5967;SDS011;3010;51.028;4.170;2023-11-21T10:22:44;70.70;;;29.27;;
5967;SDS011;3010;51.028;4.170;2023-11-21T10:25:10;57.27;;;26.13;;
5967;SDS011;3010;51.028;4.170;2023-11-21T10:27:37;62.70;;;25.70;;
5967;SDS011;3010;51.028;4.170;2023-11-21T10:30:04;61.73;;;27.07;;
5967;SDS011;3010;51.028;4.170;2023-11-21T10:32:30;52.77;;;26.93;;
5967;SDS011;3010;51.028;4.170;2023-11-21T10:34:57;59.50;;;26.20;;
5967;SDS011;3010;51.028;4.170;2023-11-21T10:37:24;62.37;;;25.13;;
5967;SDS011;3010;51.028;4.170;2023-11-21T10:39:50;49.30;;;24.73;;
5967;SDS011;3010;51.028;4.170;2023-11-21T10:42:17;54.67;;;23.10;;
5967;SDS011;3010;51.028;4.170;2023-11-21T10:44:43;46.97;;;22.20;;
5967;SDS011;3010;51.028;4.170;2023-11-21T10:47:10;38.40;;;20.07;;
5967;SDS011;3010;51.028;4.170;2023-11-21T10:49:36;44.10;;;16.73;;
5967;SDS011;3010;51.028;4.170;2023-11-21T10:52:03;31.67;;;14.83;;
5967;SDS011;3010;51.028;4.170;2023-11-21T10:54:29;32.70;;;13.47;;
5967;SDS011;3010;51.028;4.170;2023-11-21T10:56:57;24.33;;;13.10;;
5967;SDS011;3010;51.028;4.170;2023-11-21T10:59:23;19.00;;;13.10;;
5967;SDS011;3010;51.028;4.170;2023-11-21T11:01:49;15.20;;;10.03;;
5967;SDS011;3010;51.028;4.170;2023-11-21T11:04:17;13.90;;;9.45;;
5967;SDS011;3010;51.028;4.170;2023-11-21T11:06:43;10.83;;;8.73;;
5967;SDS011;3010;51.028;4.170;2023-11-21T11:09:10;14.63;;;9.63;;
5967;SDS011;3010;51.028;4.170;2023-11-21T11:11:36;15.47;;;8.90;;
5967;SDS011;3010;51.028;4.170;2023-11-21T11:14:02;14.77;;;9.47;;
5967;SDS011;3010;51.028;4.170;2023-11-21T11:16:29;15.20;;;8.80;;
5967;SDS011;3010;51.028;4.170;2023-11-21T11:18:55;10.13;;;7.90;;
5967;SDS011;3010;51.028;4.170;2023-11-21T11:21:31;11.13;;;8.27;;
5967;SDS011;3010;51.028;4.170;2023-11-21T11:32:05;14.90;;;6.87;;
5967;SDS011;3010;51.028;4.170;2023-11-21T11:34:32;11.50;;;6.10;;
5967;SDS011;3010;51.028;4.170;2023-11-21T11:39:37;10.70;;;5.43;;
5967;SDS011;3010;51.028;4.170;2023-11-21T11:42:04;10.93;;;5.20;;
5967;SDS011;3010;51.028;4.170;2023-11-21T11:47:15;7.10;;;5.23;;
5967;SDS011;3010;51.028;4.170;2023-11-21T11:49:56;7.63;;;5.37;;
5967;SDS011;3010;51.028;4.170;2023-11-21T11:52:35;7.93;;;6.30;;
5967;SDS011;3010;51.028;4.170;2023-11-21T11:55:02;13.57;;;6.43;;
5967;SDS011;3010;51.028;4.170;2023-11-21T11:57:30;12.40;;;6.53;;
5967;SDS011;3010;51.028;4.170;2023-11-21T12:00:18;11.30;;;6.17;;
5967;SDS011;3010;51.028;4.170;2023-11-21T12:02:38;13.93;;;7.97;;
5967;SDS011;3010;51.028;4.170;2023-11-21T12:05:11;11.13;;;6.83;;
5967;SDS011;3010;51.028;4.170;2023-11-21T12:07:50;17.23;;;7.83;;
5967;SDS011;3010;51.028;4.170;2023-11-21T12:10:16;8.90;;;6.60;;
5967;SDS011;3010;51.028;4.170;2023-11-21T12:12:42;14.23;;;7.33;;
5967;SDS011;3010;51.028;4.170;2023-11-21T12:15:09;13.93;;;8.75;;
5967;SDS011;3010;51.028;4.170;2023-11-21T12:17:35;13.47;;;8.67;;
5967;SDS011;3010;51.028;4.170;2023-11-21T12:20:02;18.27;;;7.27;;
5967;SDS011;3010;51.028;4.170;2023-11-21T12:22:28;13.83;;;9.27;;
5967;SDS011;3010;51.028;4.170;2023-11-21T12:24:55;18.83;;;12.90;;
5967;SDS011;3010;51.028;4.170;2023-11-21T12:27:22;7.20;;;6.57;;
5967;SDS011;3010;51.028;4.170;2023-11-21T12:29:48;10.70;;;7.82;;
5967;SDS011;3010;51.028;4.170;2023-11-21T12:32:15;10.80;;;7.33;;
5967;SDS011;3010;51.028;4.170;2023-11-21T12:34:42;11.23;;;7.47;;
5967;SDS011;3010;51.028;4.170;2023-11-21T12:37:08;8.40;;;7.60;;
5967;SDS011;3010;51.028;4.170;2023-11-21T12:39:35;12.27;;;8.37;;
5967;SDS011;3010;51.028;4.170;2023-11-21T12:42:01;12.10;;;10.30;;
5967;SDS011;3010;51.028;4.170;2023-11-21T12:44:28;9.20;;;6.43;;
5967;SDS011;3010;51.028;4.170;2023-11-21T12:46:54;13.13;;;8.57;;
5967;SDS011;3010;51.028;4.170;2023-11-21T12:49:21;10.23;;;9.03;;
5967;SDS011;3010;51.028;4.170;2023-11-21T12:51:48;7.60;;;6.90;;
5967;SDS011;3010;51.028;4.170;2023-11-21T12:54:14;9.47;;;8.60;;
5967;SDS011;3010;51.028;4.170;2023-11-21T12:56:41;8.50;;;7.70;;
5967;SDS011;3010;51.028;4.170;2023-11-21T12:59:07;9.00;;;8.10;;
5967;SDS011;3010;51.028;4.170;2023-11-21T13:01:34;11.33;;;8.67;;
5967;SDS011;3010;51.028;4.170;2023-11-21T13:04:01;9.93;;;8.57;;
5967;SDS011;3010;51.028;4.170;2023-11-21T13:06:27;12.63;;;9.53;;
5967;SDS011;3010;51.028;4.170;2023-11-21T13:08:54;10.23;;;8.30;;
5967;SDS011;3010;51.028;4.170;2023-11-21T13:11:20;10.33;;;8.50;;
5967;SDS011;3010;51.028;4.170;2023-11-21T13:13:47;10.77;;;9.60;;
5967;SDS011;3010;51.028;4.170;2023-11-21T13:16:13;12.37;;;8.70;;
5967;SDS011;3010;51.028;4.170;2023-11-21T13:18:40;10.90;;;9.50;;
5967;SDS011;3010;51.028;4.170;2023-11-21T13:21:07;12.27;;;10.67;;
5967;SDS011;3010;51.028;4.170;2023-11-21T13:23:36;13.20;;;11.23;;
5967;SDS011;3010;51.028;4.170;2023-11-21T13:26:03;15.97;;;13.03;;
5967;SDS011;3010;51.028;4.170;2023-11-21T13:28:33;16.50;;;12.57;;
5967;SDS011;3010;51.028;4.170;2023-11-21T13:30:59;12.37;;;11.07;;
5967;SDS011;3010;51.028;4.170;2023-11-21T13:33:28;13.43;;;10.77;;
5967;SDS011;3010;51.028;4.170;2023-11-21T13:35:55;13.03;;;11.43;;
5967;SDS011;3010;51.028;4.170;2023-11-21T13:38:21;13.77;;;12.27;;
5967;SDS011;3010;51.028;4.170;2023-11-21T13:40:49;12.83;;;11.00;;
5967;SDS011;3010;51.028;4.170;2023-11-21T13:43:15;11.83;;;9.93;;
5967;SDS011;3010;51.028;4.170;2023-11-21T13:45:41;10.87;;;9.10;;
5967;SDS011;3010;51.028;4.170;2023-11-21T13:48:08;11.53;;;9.73;;
5967;SDS011;3010;51.028;4.170;2023-11-21T13:50:37;11.83;;;9.90;;
5967;SDS011;3010;51.028;4.170;2023-11-21T13:53:04;10.67;;;9.57;;
5967;SDS011;3010;51.028;4.170;2023-11-21T13:55:30;14.18;;;12.30;;
5967;SDS011;3010;51.028;4.170;2023-11-21T13:57:57;18.40;;;16.60;;
5967;SDS011;3010;51.028;4.170;2023-11-21T14:00:23;15.03;;;13.33;;
5967;SDS011;3010;51.028;4.170;2023-11-21T14:02:56;16.57;;;12.73;;
5967;SDS011;3010;51.028;4.170;2023-11-21T14:05:22;9.53;;;8.10;;
5967;SDS011;3010;51.028;4.170;2023-11-21T14:07:49;11.50;;;9.43;;
5967;SDS011;3010;51.028;4.170;2023-11-21T14:10:15;7.27;;;6.57;;
5967;SDS011;3010;51.028;4.170;2023-11-21T14:12:42;6.40;;;5.90;;
5967;SDS011;3010;51.028;4.170;2023-11-21T14:15:09;6.23;;;5.73;;
5967;SDS011;3010;51.028;4.170;2023-11-21T14:17:35;7.00;;;6.40;;
5967;SDS011;3010;51.028;4.170;2023-11-21T14:20:02;4.10;;;3.90;;
5967;SDS011;3010;51.028;4.170;2023-11-21T14:22:28;6.00;;;5.60;;
5967;SDS011;3010;51.028;4.170;2023-11-21T14:24:55;4.10;;;3.80;;
5967;SDS011;3010;51.028;4.170;2023-11-21T14:27:22;5.10;;;4.80;;
5967;SDS011;3010;51.028;4.170;2023-11-21T14:29:48;4.10;;;3.90;;
5967;SDS011;3010;51.028;4.170;2023-11-21T14:32:15;7.47;;;6.87;;
5967;SDS011;3010;51.028;4.170;2023-11-21T14:34:41;9.43;;;8.50;;
5967;SDS011;3010;51.028;4.170;2023-11-21T14:37:08;6.00;;;5.50;;
5967;SDS011;3010;51.028;4.170;2023-11-21T14:39:34;7.23;;;6.53;;
5967;SDS011;3010;51.028;4.170;2023-11-21T14:42:01;8.53;;;7.60;;
5967;SDS011;3010;51.028;4.170;2023-11-21T14:44:28;8.87;;;8.13;;
5967;SDS011;3010;51.028;4.170;2023-11-21T14:46:54;7.90;;;7.30;;
5967;SDS011;3010;51.028;4.170;2023-11-21T14:49:21;8.87;;;8.07;;
5967;SDS011;3010;51.028;4.170;2023-11-21T14:51:49;14.10;;;11.17;;
5967;SDS011;3010;51.028;4.170;2023-11-21T14:54:17;12.80;;;9.90;;